sensor_id;sensor_type;location;lat;lon;timestamp;P1;durP1;ratioP1;P2;durP2;ratioP2
20480;SDS011;10399;50.754;3.366;2024-02-16T00:01:05;6.15;;;4.53;;
20480;SDS011;10399;50.754;3.366;2024-02-16T00:03:52;7.75;;;4.57;;
20480;SDS011;10399;50.754;3.366;2024-02-16T00:06:19;5.90;;;4.05;;
20480;SDS011;10399;50.754;3.366;2024-02-16T00:08:48;6.55;;;4.30;;
20480;SDS011;10399;50.754;3.366;2024-02-16T00:11:18;7.82;;;4.68;;
20480;SDS011;10399;50.754;3.366;2024-02-16T00:14:19;6.60;;;4.05;;
20480;SDS011;10399;50.754;3.366;2024-02-16T00:16:47;10.05;;;4.50;;
20480;SDS011;10399;50.754;3.366;2024-02-16T00:22:15;6.47;;;4.03;;
20480;SDS011;10399;50.754;3.366;2024-02-16T00:24:41;7.95;;;4.25;;
20480;SDS011;10399;50.754;3.366;2024-02-16T00:27:10;8.77;;;4.20;;
20480;SDS011;10399;50.754;3.366;2024-02-16T00:32:29;5.75;;;3.90;;
20480;SDS011;10399;50.754;3.366;2024-02-16T00:34:57;8.68;;;4.85;;
20480;SDS011;10399;50.754;3.366;2024-02-16T00:37:24;8.63;;;4.30;;
20480;SDS011;10399;50.754;3.366;2024-02-16T00:39:57;9.00;;;4.07;;
20480;SDS011;10399;50.754;3.366;2024-02-16T00:42:27;7.25;;;4.13;;
20480;SDS011;10399;50.754;3.366;2024-02-16T00:45:06;7.20;;;4.03;;
20480;SDS011;10399;50.754;3.366;2024-02-16T00:47:34;7.63;;;4.45;;
20480;SDS011;10399;50.754;3.366;2024-02-16T00:50:08;7.80;;;3.95;;
20480;SDS011;10399;50.754;3.366;2024-02-16T00:52:43;8.75;;;4.45;;
20480;SDS011;10399;50.754;3.366;2024-02-16T00:55:13;9.07;;;4.57;;
20480;SDS011;10399;50.754;3.366;2024-02-16T00:57:40;6.47;;;4.18;;
20480;SDS011;10399;50.754;3.366;2024-02-16T01:00:10;8.63;;;4.80;;
20480;SDS011;10399;50.754;3.366;2024-02-16T01:02:41;7.72;;;4.78;;
20480;SDS011;10399;50.754;3.366;2024-02-16T01:05:08;9.90;;;4.38;;
20480;SDS011;10399;50.754;3.366;2024-02-16T01:07:37;7.43;;;4.47;;
20480;SDS011;10399;50.754;3.366;2024-02-16T01:10:11;7.40;;;3.90;;
20480;SDS011;10399;50.754;3.366;2024-02-16T01:13:07;6.22;;;3.95;;
20480;SDS011;10399;50.754;3.366;2024-02-16T01:15:34;8.23;;;4.35;;
20480;SDS011;10399;50.754;3.366;2024-02-16T01:18:04;5.97;;;4.30;;
20480;SDS011;10399;50.754;3.366;2024-02-16T01:20:31;6.28;;;4.00;;
20480;SDS011;10399;50.754;3.366;2024-02-16T01:22:58;7.68;;;4.30;;
20480;SDS011;10399;50.754;3.366;2024-02-16T01:25:25;6.20;;;4.32;;
20480;SDS011;10399;50.754;3.366;2024-02-16T01:27:52;6.15;;;4.00;;
20480;SDS011;10399;50.754;3.366;2024-02-16T01:30:25;7.82;;;4.50;;
20480;SDS011;10399;50.754;3.366;2024-02-16T01:32:58;7.13;;;4.50;;
20480;SDS011;10399;50.754;3.366;2024-02-16T01:35:26;9.10;;;4.47;;
20480;SDS011;10399;50.754;3.366;2024-02-16T01:37:53;7.43;;;4.20;;
20480;SDS011;10399;50.754;3.366;2024-02-16T01:40:23;6.85;;;4.30;;
20480;SDS011;10399;50.754;3.366;2024-02-16T01:43:04;6.13;;;4.38;;
20480;SDS011;10399;50.754;3.366;2024-02-16T01:45:31;5.72;;;4.18;;
20480;SDS011;10399;50.754;3.366;2024-02-16T01:47:58;8.07;;;4.75;;
20480;SDS011;10399;50.754;3.366;2024-02-16T01:50:37;9.05;;;4.38;;
20480;SDS011;10399;50.754;3.366;2024-02-16T01:53:08;7.05;;;4.50;;
20480;SDS011;10399;50.754;3.366;2024-02-16T01:55:41;8.25;;;4.25;;
20480;SDS011;10399;50.754;3.366;2024-02-16T01:58:08;8.10;;;3.97;;
20480;SDS011;10399;50.754;3.366;2024-02-16T02:00:41;6.35;;;4.25;;
20480;SDS011;10399;50.754;3.366;2024-02-16T02:03:17;8.68;;;4.10;;
20480;SDS011;10399;50.754;3.366;2024-02-16T02:05:45;7.72;;;4.30;;
20480;SDS011;10399;50.754;3.366;2024-02-16T02:08:12;8.63;;;4.22;;
20480;SDS011;10399;50.754;3.366;2024-02-16T02:10:43;6.65;;;4.40;;
20480;SDS011;10399;50.754;3.366;2024-02-16T02:13:20;7.60;;;3.92;;
20480;SDS011;10399;50.754;3.366;2024-02-16T02:15:51;5.15;;;4.20;;
20480;SDS011;10399;50.754;3.366;2024-02-16T02:18:20;8.48;;;4.25;;
20480;SDS011;10399;50.754;3.366;2024-02-16T02:20:50;6.28;;;4.15;;
20480;SDS011;10399;50.754;3.366;2024-02-16T02:23:20;6.13;;;4.22;;
20480;SDS011;10399;50.754;3.366;2024-02-16T02:25:47;10.90;;;4.55;;
20480;SDS011;10399;50.754;3.366;2024-02-16T02:28:15;6.45;;;4.18;;
20480;SDS011;10399;50.754;3.366;2024-02-16T02:30:45;7.78;;;4.53;;
20480;SDS011;10399;50.754;3.366;2024-02-16T02:33:22;6.43;;;3.80;;
20480;SDS011;10399;50.754;3.366;2024-02-16T02:35:49;5.72;;;4.18;;
20480;SDS011;10399;50.754;3.366;2024-02-16T02:38:17;9.15;;;4.20;;
20480;SDS011;10399;50.754;3.366;2024-02-16T02:40:50;8.07;;;4.32;;
20480;SDS011;10399;50.754;3.366;2024-02-16T02:43:20;7.57;;;4.45;;
20480;SDS011;10399;50.754;3.366;2024-02-16T02:45:51;7.32;;;4.10;;
20480;SDS011;10399;50.754;3.366;2024-02-16T02:48:19;7.22;;;4.22;;
20480;SDS011;10399;50.754;3.366;2024-02-16T02:50:53;7.80;;;4.07;;
20480;SDS011;10399;50.754;3.366;2024-02-16T02:53:29;8.27;;;4.10;;
20480;SDS011;10399;50.754;3.366;2024-02-16T02:55:57;8.75;;;4.32;;
20480;SDS011;10399;50.754;3.366;2024-02-16T02:58:24;10.75;;;4.30;;
20480;SDS011;10399;50.754;3.366;2024-02-16T03:00:57;6.03;;;4.15;;
20480;SDS011;10399;50.754;3.366;2024-02-16T03:03:33;7.40;;;4.38;;
20480;SDS011;10399;50.754;3.366;2024-02-16T03:06:03;6.70;;;4.28;;
20480;SDS011;10399;50.754;3.366;2024-02-16T03:08:30;8.50;;;4.45;;
20480;SDS011;10399;50.754;3.366;2024-02-16T03:11:00;8.40;;;4.30;;
20480;SDS011;10399;50.754;3.366;2024-02-16T03:13:34;7.55;;;4.70;;
20480;SDS011;10399;50.754;3.366;2024-02-16T03:16:01;10.80;;;5.00;;
20480;SDS011;10399;50.754;3.366;2024-02-16T03:18:31;14.30;;;5.10;;
20480;SDS011;10399;50.754;3.366;2024-02-16T03:21:04;10.45;;;4.57;;
20480;SDS011;10399;50.754;3.366;2024-02-16T03:23:34;13.73;;;5.78;;
20480;SDS011;10399;50.754;3.366;2024-02-16T03:26:16;14.10;;;5.95;;
20480;SDS011;10399;50.754;3.366;2024-02-16T03:28:47;13.60;;;4.85;;
20480;SDS011;10399;50.754;3.366;2024-02-16T03:31:19;10.25;;;4.90;;
20480;SDS011;10399;50.754;3.366;2024-02-16T03:34:15;11.85;;;4.45;;
20480;SDS011;10399;50.754;3.366;2024-02-16T03:36:48;9.70;;;5.00;;
20480;SDS011;10399;50.754;3.366;2024-02-16T03:39:15;10.70;;;4.85;;
20480;SDS011;10399;50.754;3.366;2024-02-16T03:42:12;7.47;;;4.47;;
20480;SDS011;10399;50.754;3.366;2024-02-16T03:44:39;12.20;;;4.60;;
20480;SDS011;10399;50.754;3.366;2024-02-16T03:47:06;11.40;;;4.82;;
20480;SDS011;10399;50.754;3.366;2024-02-16T03:49:35;9.65;;;4.75;;
20480;SDS011;10399;50.754;3.366;2024-02-16T03:52:18;12.35;;;5.75;;
20480;SDS011;10399;50.754;3.366;2024-02-16T03:54:53;15.38;;;5.68;;
20480;SDS011;10399;50.754;3.366;2024-02-16T03:57:20;12.88;;;5.85;;
20480;SDS011;10399;50.754;3.366;2024-02-16T03:59:47;12.55;;;5.07;;
20480;SDS011;10399;50.754;3.366;2024-02-16T04:02:26;10.93;;;5.25;;
20480;SDS011;10399;50.754;3.366;2024-02-16T04:04:53;10.10;;;4.40;;
20480;SDS011;10399;50.754;3.366;2024-02-16T04:07:21;8.02;;;4.07;;
20480;SDS011;10399;50.754;3.366;2024-02-16T04:09:48;9.27;;;4.03;;
20480;SDS011;10399;50.754;3.366;2024-02-16T04:15:06;10.95;;;3.75;;
20480;SDS011;10399;50.754;3.366;2024-02-16T04:17:33;6.60;;;4.03;;
20480;SDS011;10399;50.754;3.366;2024-02-16T04:20:00;6.15;;;3.65;;
20480;SDS011;10399;50.754;3.366;2024-02-16T04:22:36;5.97;;;4.07;;
20480;SDS011;10399;50.754;3.366;2024-02-16T04:25:11;8.00;;;3.70;;
20480;SDS011;10399;50.754;3.366;2024-02-16T04:27:39;5.70;;;3.35;;
20480;SDS011;10399;50.754;3.366;2024-02-16T04:30:06;5.40;;;3.58;;
20480;SDS011;10399;50.754;3.366;2024-02-16T04:32:33;6.78;;;4.03;;
20480;SDS011;10399;50.754;3.366;2024-02-16T04:35:06;8.95;;;4.22;;
20480;SDS011;10399;50.754;3.366;2024-02-16T04:37:39;7.40;;;4.25;;
20480;SDS011;10399;50.754;3.366;2024-02-16T04:40:06;7.05;;;4.43;;
20480;SDS011;10399;50.754;3.366;2024-02-16T04:42:34;6.65;;;4.13;;
20480;SDS011;10399;50.754;3.366;2024-02-16T04:45:04;5.80;;;4.03;;
20480;SDS011;10399;50.754;3.366;2024-02-16T04:47:34;12.57;;;3.83;;
20480;SDS011;10399;50.754;3.366;2024-02-16T04:50:01;5.82;;;3.83;;
20480;SDS011;10399;50.754;3.366;2024-02-16T04:55:46;8.30;;;4.10;;
20480;SDS011;10399;50.754;3.366;2024-02-16T04:58:13;6.65;;;3.63;;
20480;SDS011;10399;50.754;3.366;2024-02-16T05:00:40;10.82;;;4.40;;
20480;SDS011;10399;50.754;3.366;2024-02-16T05:03:07;7.65;;;4.00;;
20480;SDS011;10399;50.754;3.366;2024-02-16T05:05:35;6.43;;;3.63;;
20480;SDS011;10399;50.754;3.366;2024-02-16T05:08:02;8.32;;;3.63;;
20480;SDS011;10399;50.754;3.366;2024-02-16T05:10:29;5.95;;;3.75;;
20480;SDS011;10399;50.754;3.366;2024-02-16T05:12:56;8.38;;;4.07;;
20480;SDS011;10399;50.754;3.366;2024-02-16T05:15:24;6.55;;;3.92;;
20480;SDS011;10399;50.754;3.366;2024-02-16T05:17:52;5.40;;;4.25;;
20480;SDS011;10399;50.754;3.366;2024-02-16T05:20:19;6.30;;;3.90;;
20480;SDS011;10399;50.754;3.366;2024-02-16T05:22:46;6.82;;;3.60;;
20480;SDS011;10399;50.754;3.366;2024-02-16T05:25:16;9.05;;;4.13;;
20480;SDS011;10399;50.754;3.366;2024-02-16T05:27:46;6.13;;;3.83;;
20480;SDS011;10399;50.754;3.366;2024-02-16T05:30:16;6.95;;;3.95;;
20480;SDS011;10399;50.754;3.366;2024-02-16T05:32:44;10.77;;;3.90;;
20480;SDS011;10399;50.754;3.366;2024-02-16T05:35:11;6.78;;;3.72;;
20480;SDS011;10399;50.754;3.366;2024-02-16T05:37:40;13.50;;;4.53;;
20480;SDS011;10399;50.754;3.366;2024-02-16T05:40:17;9.55;;;4.18;;
20480;SDS011;10399;50.754;3.366;2024-02-16T05:42:53;8.32;;;4.63;;
20480;SDS011;10399;50.754;3.366;2024-02-16T05:45:23;7.10;;;3.95;;
20480;SDS011;10399;50.754;3.366;2024-02-16T05:47:53;8.68;;;4.13;;
20480;SDS011;10399;50.754;3.366;2024-02-16T05:50:20;9.30;;;4.60;;
20480;SDS011;10399;50.754;3.366;2024-02-16T05:52:49;11.23;;;4.43;;
20480;SDS011;10399;50.754;3.366;2024-02-16T05:55:18;8.35;;;4.18;;
20480;SDS011;10399;50.754;3.366;2024-02-16T05:57:45;9.68;;;4.30;;
20480;SDS011;10399;50.754;3.366;2024-02-16T06:00:12;6.63;;;3.80;;
20480;SDS011;10399;50.754;3.366;2024-02-16T06:02:42;9.57;;;4.68;;
20480;SDS011;10399;50.754;3.366;2024-02-16T06:05:09;4.85;;;3.60;;
20480;SDS011;10399;50.754;3.366;2024-02-16T06:07:37;10.13;;;4.40;;
20480;SDS011;10399;50.754;3.366;2024-02-16T06:10:05;10.05;;;4.03;;
20480;SDS011;10399;50.754;3.366;2024-02-16T06:12:38;6.22;;;4.00;;
20480;SDS011;10399;50.754;3.366;2024-02-16T06:15:06;11.50;;;4.35;;
20480;SDS011;10399;50.754;3.366;2024-02-16T06:17:33;9.25;;;4.72;;
20480;SDS011;10399;50.754;3.366;2024-02-16T06:20:00;8.27;;;4.25;;
20480;SDS011;10399;50.754;3.366;2024-02-16T06:25:20;6.35;;;3.72;;
20480;SDS011;10399;50.754;3.366;2024-02-16T06:27:47;6.78;;;4.07;;
20480;SDS011;10399;50.754;3.366;2024-02-16T06:30:14;9.98;;;4.18;;
20480;SDS011;10399;50.754;3.366;2024-02-16T06:35:30;7.00;;;4.10;;
20480;SDS011;10399;50.754;3.366;2024-02-16T06:37:57;7.85;;;4.25;;
20480;SDS011;10399;50.754;3.366;2024-02-16T06:40:24;10.18;;;4.40;;
20480;SDS011;10399;50.754;3.366;2024-02-16T06:42:55;9.20;;;4.85;;
20480;SDS011;10399;50.754;3.366;2024-02-16T06:45:29;9.68;;;4.80;;
20480;SDS011;10399;50.754;3.366;2024-02-16T06:47:56;11.52;;;4.50;;
20480;SDS011;10399;50.754;3.366;2024-02-16T06:50:24;13.27;;;4.07;;
20480;SDS011;10399;50.754;3.366;2024-02-16T06:53:09;8.27;;;4.63;;
20480;SDS011;10399;50.754;3.366;2024-02-16T06:55:37;10.82;;;4.18;;
20480;SDS011;10399;50.754;3.366;2024-02-16T06:58:04;11.88;;;4.63;;
20480;SDS011;10399;50.754;3.366;2024-02-16T07:00:31;6.40;;;4.32;;
20480;SDS011;10399;50.754;3.366;2024-02-16T07:02:58;10.35;;;4.43;;
20480;SDS011;10399;50.754;3.366;2024-02-16T07:05:25;9.13;;;4.47;;
20480;SDS011;10399;50.754;3.366;2024-02-16T07:07:59;7.25;;;3.75;;
20480;SDS011;10399;50.754;3.366;2024-02-16T07:10:25;11.55;;;4.70;;
20480;SDS011;10399;50.754;3.366;2024-02-16T07:13:05;14.30;;;4.97;;
20480;SDS011;10399;50.754;3.366;2024-02-16T07:15:34;11.70;;;4.45;;
20480;SDS011;10399;50.754;3.366;2024-02-16T07:18:01;9.85;;;4.43;;
20480;SDS011;10399;50.754;3.366;2024-02-16T07:20:31;7.43;;;4.15;;
20480;SDS011;10399;50.754;3.366;2024-02-16T07:23:04;9.20;;;4.45;;
20480;SDS011;10399;50.754;3.366;2024-02-16T07:25:38;8.63;;;4.32;;
20480;SDS011;10399;50.754;3.366;2024-02-16T07:28:05;7.40;;;4.07;;
20480;SDS011;10399;50.754;3.366;2024-02-16T07:30:32;11.20;;;4.43;;
20480;SDS011;10399;50.754;3.366;2024-02-16T07:33:09;10.38;;;4.85;;
20480;SDS011;10399;50.754;3.366;2024-02-16T07:35:38;10.15;;;4.57;;
20480;SDS011;10399;50.754;3.366;2024-02-16T07:38:05;14.30;;;5.00;;
20480;SDS011;10399;50.754;3.366;2024-02-16T07:40:32;7.88;;;5.03;;
20480;SDS011;10399;50.754;3.366;2024-02-16T07:43:05;9.95;;;4.95;;
20480;SDS011;10399;50.754;3.366;2024-02-16T07:45:43;14.88;;;5.13;;
20480;SDS011;10399;50.754;3.366;2024-02-16T07:48:10;11.95;;;5.78;;
20480;SDS011;10399;50.754;3.366;2024-02-16T07:50:37;13.82;;;5.60;;
20480;SDS011;10399;50.754;3.366;2024-02-16T07:53:04;7.53;;;5.00;;
20480;SDS011;10399;50.754;3.366;2024-02-16T07:55:37;10.20;;;5.20;;
20480;SDS011;10399;50.754;3.366;2024-02-16T07:58:04;16.70;;;5.72;;
20480;SDS011;10399;50.754;3.366;2024-02-16T08:00:31;8.38;;;5.30;;
20480;SDS011;10399;50.754;3.366;2024-02-16T08:03:02;11.10;;;5.70;;
20480;SDS011;10399;50.754;3.366;2024-02-16T08:05:44;8.52;;;5.13;;
20480;SDS011;10399;50.754;3.366;2024-02-16T08:08:16;9.95;;;5.75;;
20480;SDS011;10399;50.754;3.366;2024-02-16T08:10:43;11.30;;;5.80;;
20480;SDS011;10399;50.754;3.366;2024-02-16T08:13:20;8.50;;;5.07;;
20480;SDS011;10399;50.754;3.366;2024-02-16T08:16:23;11.65;;;5.15;;
20480;SDS011;10399;50.754;3.366;2024-02-16T08:18:50;12.98;;;5.88;;
20480;SDS011;10399;50.754;3.366;2024-02-16T08:21:21;13.80;;;5.72;;
20480;SDS011;10399;50.754;3.366;2024-02-16T08:24:19;13.40;;;5.18;;
20480;SDS011;10399;50.754;3.366;2024-02-16T08:26:48;17.67;;;5.57;;
20480;SDS011;10399;50.754;3.366;2024-02-16T08:29:15;10.40;;;4.88;;
20480;SDS011;10399;50.754;3.366;2024-02-16T08:31:57;12.88;;;5.15;;
20480;SDS011;10399;50.754;3.366;2024-02-16T08:34:24;14.63;;;5.43;;
20480;SDS011;10399;50.754;3.366;2024-02-16T08:37:07;12.50;;;5.20;;
20480;SDS011;10399;50.754;3.366;2024-02-16T08:39:34;16.27;;;5.10;;
20480;SDS011;10399;50.754;3.366;2024-02-16T08:42:04;10.60;;;5.22;;
20480;SDS011;10399;50.754;3.366;2024-02-16T08:44:40;13.07;;;5.55;;
20480;SDS011;10399;50.754;3.366;2024-02-16T08:47:30;14.30;;;6.20;;
20480;SDS011;10399;50.754;3.366;2024-02-16T08:49:57;16.10;;;5.93;;
20480;SDS011;10399;50.754;3.366;2024-02-16T08:52:33;16.15;;;5.80;;
20480;SDS011;10399;50.754;3.366;2024-02-16T08:55:00;11.15;;;5.70;;
20480;SDS011;10399;50.754;3.366;2024-02-16T08:57:40;10.68;;;5.47;;
20480;SDS011;10399;50.754;3.366;2024-02-16T09:00:07;15.55;;;5.88;;
20480;SDS011;10399;50.754;3.366;2024-02-16T09:02:37;13.20;;;5.45;;
20480;SDS011;10399;50.754;3.366;2024-02-16T09:05:10;13.05;;;5.85;;
20480;SDS011;10399;50.754;3.366;2024-02-16T09:07:41;13.40;;;5.55;;
20480;SDS011;10399;50.754;3.366;2024-02-16T09:10:08;14.45;;;6.15;;
20480;SDS011;10399;50.754;3.366;2024-02-16T09:12:35;11.85;;;6.40;;
20480;SDS011;10399;50.754;3.366;2024-02-16T09:15:02;17.08;;;7.03;;
20480;SDS011;10399;50.754;3.366;2024-02-16T09:17:32;16.00;;;7.47;;
20480;SDS011;10399;50.754;3.366;2024-02-16T09:19:59;13.98;;;7.13;;
20480;SDS011;10399;50.754;3.366;2024-02-16T09:22:26;15.60;;;7.03;;
20480;SDS011;10399;50.754;3.366;2024-02-16T09:24:56;16.73;;;6.57;;
20480;SDS011;10399;50.754;3.366;2024-02-16T09:27:26;12.88;;;6.68;;
20480;SDS011;10399;50.754;3.366;2024-02-16T09:29:54;16.35;;;7.10;;
20480;SDS011;10399;50.754;3.366;2024-02-16T09:32:22;16.60;;;7.03;;
20480;SDS011;10399;50.754;3.366;2024-02-16T09:34:49;14.32;;;6.90;;
20480;SDS011;10399;50.754;3.366;2024-02-16T09:37:18;17.65;;;7.18;;
20480;SDS011;10399;50.754;3.366;2024-02-16T09:39:44;18.33;;;7.43;;
20480;SDS011;10399;50.754;3.366;2024-02-16T09:42:11;13.43;;;7.55;;
20480;SDS011;10399;50.754;3.366;2024-02-16T09:44:41;15.60;;;8.05;;
20480;SDS011;10399;50.754;3.366;2024-02-16T09:47:10;18.52;;;7.75;;
20480;SDS011;10399;50.754;3.366;2024-02-16T09:49:40;16.05;;;7.97;;
20480;SDS011;10399;50.754;3.366;2024-02-16T09:52:09;18.85;;;8.68;;
20480;SDS011;10399;50.754;3.366;2024-02-16T09:54:40;17.58;;;8.63;;
20480;SDS011;10399;50.754;3.366;2024-02-16T09:57:07;25.23;;;9.30;;
20480;SDS011;10399;50.754;3.366;2024-02-16T09:59:34;22.48;;;9.27;;
20480;SDS011;10399;50.754;3.366;2024-02-16T10:02:02;16.95;;;9.43;;
20480;SDS011;10399;50.754;3.366;2024-02-16T10:04:31;23.30;;;9.93;;
20480;SDS011;10399;50.754;3.366;2024-02-16T10:07:02;24.77;;;10.23;;
20480;SDS011;10399;50.754;3.366;2024-02-16T10:09:38;23.67;;;11.73;;
20480;SDS011;10399;50.754;3.366;2024-02-16T10:12:08;21.98;;;11.38;;
20480;SDS011;10399;50.754;3.366;2024-02-16T10:14:35;23.35;;;10.80;;
20480;SDS011;10399;50.754;3.366;2024-02-16T10:17:05;19.10;;;10.40;;
20480;SDS011;10399;50.754;3.366;2024-02-16T10:19:32;23.27;;;10.18;;
20480;SDS011;10399;50.754;3.366;2024-02-16T10:22:10;21.58;;;10.40;;
20480;SDS011;10399;50.754;3.366;2024-02-16T10:24:38;15.15;;;9.52;;
20480;SDS011;10399;50.754;3.366;2024-02-16T10:27:13;14.02;;;9.70;;
20480;SDS011;10399;50.754;3.366;2024-02-16T10:29:43;19.40;;;9.88;;
20480;SDS011;10399;50.754;3.366;2024-02-16T10:32:12;15.77;;;10.25;;
20480;SDS011;10399;50.754;3.366;2024-02-16T10:34:40;17.85;;;10.25;;
20480;SDS011;10399;50.754;3.366;2024-02-16T10:37:09;15.40;;;10.13;;
20480;SDS011;10399;50.754;3.366;2024-02-16T10:39:36;16.17;;;10.85;;
20480;SDS011;10399;50.754;3.366;2024-02-16T10:42:06;17.65;;;10.45;;
20480;SDS011;10399;50.754;3.366;2024-02-16T10:44:36;16.65;;;10.55;;
20480;SDS011;10399;50.754;3.366;2024-02-16T10:47:03;14.57;;;11.27;;
20480;SDS011;10399;50.754;3.366;2024-02-16T10:49:31;18.35;;;12.80;;
20480;SDS011;10399;50.754;3.366;2024-02-16T10:51:58;24.85;;;14.32;;
20480;SDS011;10399;50.754;3.366;2024-02-16T10:54:28;20.15;;;14.90;;
20480;SDS011;10399;50.754;3.366;2024-02-16T10:56:58;24.67;;;15.73;;
20480;SDS011;10399;50.754;3.366;2024-02-16T10:59:25;30.35;;;17.52;;
20480;SDS011;10399;50.754;3.366;2024-02-16T11:02:01;35.95;;;19.73;;
20480;SDS011;10399;50.754;3.366;2024-02-16T11:04:38;34.08;;;20.20;;
20480;SDS011;10399;50.754;3.366;2024-02-16T11:07:15;33.72;;;20.63;;
20480;SDS011;10399;50.754;3.366;2024-02-16T11:09:45;28.45;;;19.38;;
20480;SDS011;10399;50.754;3.366;2024-02-16T11:12:13;37.65;;;20.40;;
20480;SDS011;10399;50.754;3.366;2024-02-16T11:14:45;31.27;;;20.75;;
20480;SDS011;10399;50.754;3.366;2024-02-16T11:17:15;31.63;;;19.50;;
20480;SDS011;10399;50.754;3.366;2024-02-16T11:19:47;30.20;;;19.35;;
20480;SDS011;10399;50.754;3.366;2024-02-16T11:22:18;25.92;;;17.48;;
20480;SDS011;10399;50.754;3.366;2024-02-16T11:24:47;24.80;;;16.92;;
20480;SDS011;10399;50.754;3.366;2024-02-16T11:27:16;23.25;;;16.58;;
20480;SDS011;10399;50.754;3.366;2024-02-16T11:29:48;23.17;;;15.93;;
20480;SDS011;10399;50.754;3.366;2024-02-16T11:32:16;20.98;;;15.13;;
20480;SDS011;10399;50.754;3.366;2024-02-16T11:34:45;19.30;;;15.50;;
20480;SDS011;10399;50.754;3.366;2024-02-16T11:37:13;22.02;;;13.93;;
20480;SDS011;10399;50.754;3.366;2024-02-16T11:39:43;18.40;;;13.93;;
20480;SDS011;10399;50.754;3.366;2024-02-16T11:42:13;16.38;;;11.88;;
20480;SDS011;10399;50.754;3.366;2024-02-16T11:44:52;14.93;;;10.38;;
20480;SDS011;10399;50.754;3.366;2024-02-16T11:47:22;12.10;;;9.07;;
20480;SDS011;10399;50.754;3.366;2024-02-16T11:52:38;9.75;;;5.82;;
20480;SDS011;10399;50.754;3.366;2024-02-16T11:55:09;6.43;;;5.20;;
20480;SDS011;10399;50.754;3.366;2024-02-16T11:57:38;5.70;;;4.18;;
20480;SDS011;10399;50.754;3.366;2024-02-16T12:00:05;5.28;;;4.47;;
20480;SDS011;10399;50.754;3.366;2024-02-16T12:02:41;4.40;;;3.97;;
20480;SDS011;10399;50.754;3.366;2024-02-16T12:05:08;4.72;;;3.38;;
20480;SDS011;10399;50.754;3.366;2024-02-16T12:07:39;6.68;;;3.78;;
20480;SDS011;10399;50.754;3.366;2024-02-16T12:10:07;6.18;;;3.90;;
20480;SDS011;10399;50.754;3.366;2024-02-16T12:12:35;4.22;;;3.75;;
20480;SDS011;10399;50.754;3.366;2024-02-16T12:15:04;5.97;;;3.80;;
20480;SDS011;10399;50.754;3.366;2024-02-16T12:17:32;4.88;;;3.70;;
20480;SDS011;10399;50.754;3.366;2024-02-16T12:20:00;4.88;;;4.00;;
20480;SDS011;10399;50.754;3.366;2024-02-16T12:22:27;4.43;;;3.03;;
20480;SDS011;10399;50.754;3.366;2024-02-16T12:24:54;5.30;;;2.72;;
20480;SDS011;10399;50.754;3.366;2024-02-16T12:27:23;6.20;;;3.00;;
20480;SDS011;10399;50.754;3.366;2024-02-16T12:29:50;3.75;;;2.90;;
20480;SDS011;10399;50.754;3.366;2024-02-16T12:32:16;4.43;;;2.67;;
20480;SDS011;10399;50.754;3.366;2024-02-16T12:34:46;6.90;;;2.83;;
20480;SDS011;10399;50.754;3.366;2024-02-16T12:37:14;4.35;;;3.40;;
20480;SDS011;10399;50.754;3.366;2024-02-16T12:39:41;6.00;;;3.63;;
20480;SDS011;10399;50.754;3.366;2024-02-16T12:42:08;5.20;;;3.78;;
20480;SDS011;10399;50.754;3.366;2024-02-16T12:44:35;4.90;;;3.88;;
20480;SDS011;10399;50.754;3.366;2024-02-16T12:47:02;5.38;;;3.97;;
20480;SDS011;10399;50.754;3.366;2024-02-16T12:49:29;6.20;;;4.65;;
20480;SDS011;10399;50.754;3.366;2024-02-16T12:51:57;5.72;;;3.88;;
20480;SDS011;10399;50.754;3.366;2024-02-16T12:54:24;7.28;;;4.63;;
20480;SDS011;10399;50.754;3.366;2024-02-16T12:56:52;6.80;;;5.25;;
20480;SDS011;10399;50.754;3.366;2024-02-16T12:59:20;6.57;;;5.82;;
20480;SDS011;10399;50.754;3.366;2024-02-16T13:01:47;7.95;;;7.15;;
20480;SDS011;10399;50.754;3.366;2024-02-16T13:04:14;11.38;;;8.77;;
20480;SDS011;10399;50.754;3.366;2024-02-16T13:06:48;15.05;;;11.90;;
20480;SDS011;10399;50.754;3.366;2024-02-16T13:09:16;16.45;;;13.75;;
20480;SDS011;10399;50.754;3.366;2024-02-16T13:11:44;18.52;;;14.45;;
20480;SDS011;10399;50.754;3.366;2024-02-16T13:14:11;17.83;;;14.35;;
20480;SDS011;10399;50.754;3.366;2024-02-16T13:16:38;17.13;;;14.43;;
20480;SDS011;10399;50.754;3.366;2024-02-16T13:19:06;17.13;;;13.60;;
20480;SDS011;10399;50.754;3.366;2024-02-16T13:21:33;14.93;;;12.85;;
20480;SDS011;10399;50.754;3.366;2024-02-16T13:24:01;15.00;;;12.77;;
20480;SDS011;10399;50.754;3.366;2024-02-16T13:26:28;13.85;;;12.07;;
20480;SDS011;10399;50.754;3.366;2024-02-16T13:28:56;19.00;;;12.57;;
20480;SDS011;10399;50.754;3.366;2024-02-16T13:31:24;15.68;;;12.23;;
20480;SDS011;10399;50.754;3.366;2024-02-16T13:33:52;15.40;;;11.15;;
20480;SDS011;10399;50.754;3.366;2024-02-16T13:36:21;12.07;;;10.48;;
20480;SDS011;10399;50.754;3.366;2024-02-16T13:38:48;11.77;;;10.40;;
20480;SDS011;10399;50.754;3.366;2024-02-16T13:41:15;10.68;;;9.57;;
20480;SDS011;10399;50.754;3.366;2024-02-16T13:43:46;10.95;;;9.02;;
20480;SDS011;10399;50.754;3.366;2024-02-16T13:46:13;10.15;;;8.00;;
20480;SDS011;10399;50.754;3.366;2024-02-16T13:48:41;10.20;;;7.18;;
20480;SDS011;10399;50.754;3.366;2024-02-16T13:51:09;8.18;;;7.25;;
20480;SDS011;10399;50.754;3.366;2024-02-16T13:53:36;9.57;;;5.95;;
20480;SDS011;10399;50.754;3.366;2024-02-16T13:56:05;7.22;;;6.35;;
20480;SDS011;10399;50.754;3.366;2024-02-16T13:58:33;7.93;;;6.50;;
20480;SDS011;10399;50.754;3.366;2024-02-16T14:01:01;6.82;;;6.07;;
20480;SDS011;10399;50.754;3.366;2024-02-16T14:03:32;8.73;;;6.97;;
20480;SDS011;10399;50.754;3.366;2024-02-16T14:06:00;10.40;;;7.75;;
20480;SDS011;10399;50.754;3.366;2024-02-16T14:08:28;10.48;;;7.53;;
20480;SDS011;10399;50.754;3.366;2024-02-16T14:10:55;8.45;;;7.18;;
20480;SDS011;10399;50.754;3.366;2024-02-16T14:13:22;10.38;;;7.80;;
20480;SDS011;10399;50.754;3.366;2024-02-16T14:15:51;8.55;;;7.65;;
20480;SDS011;10399;50.754;3.366;2024-02-16T14:18:18;8.65;;;7.05;;
20480;SDS011;10399;50.754;3.366;2024-02-16T14:20:59;9.30;;;6.85;;
20480;SDS011;10399;50.754;3.366;2024-02-16T14:23:27;10.20;;;7.38;;
20480;SDS011;10399;50.754;3.366;2024-02-16T14:25:54;8.65;;;7.10;;
20480;SDS011;10399;50.754;3.366;2024-02-16T14:28:21;7.28;;;6.20;;
20480;SDS011;10399;50.754;3.366;2024-02-16T14:30:48;7.70;;;5.47;;
20480;SDS011;10399;50.754;3.366;2024-02-16T14:33:18;5.00;;;4.50;;
20480;SDS011;10399;50.754;3.366;2024-02-16T14:35:58;5.10;;;4.35;;
20480;SDS011;10399;50.754;3.366;2024-02-16T14:38:26;6.93;;;4.60;;
20480;SDS011;10399;50.754;3.366;2024-02-16T14:40:54;6.07;;;4.35;;
20480;SDS011;10399;50.754;3.366;2024-02-16T14:43:21;4.88;;;3.92;;
20480;SDS011;10399;50.754;3.366;2024-02-16T14:45:48;4.45;;;3.65;;
20480;SDS011;10399;50.754;3.366;2024-02-16T14:48:15;4.60;;;3.90;;
20480;SDS011;10399;50.754;3.366;2024-02-16T14:50:42;6.85;;;4.10;;
20480;SDS011;10399;50.754;3.366;2024-02-16T14:53:09;4.80;;;3.42;;
20480;SDS011;10399;50.754;3.366;2024-02-16T14:55:36;5.93;;;3.67;;
20480;SDS011;10399;50.754;3.366;2024-02-16T14:58:03;5.20;;;3.70;;
20480;SDS011;10399;50.754;3.366;2024-02-16T15:00:30;4.88;;;3.58;;
20480;SDS011;10399;50.754;3.366;2024-02-16T15:02:57;5.43;;;3.50;;
20480;SDS011;10399;50.754;3.366;2024-02-16T15:05:24;5.18;;;3.92;;
20480;SDS011;10399;50.754;3.366;2024-02-16T15:07:51;8.20;;;3.63;;
20480;SDS011;10399;50.754;3.366;2024-02-16T15:10:18;7.43;;;3.60;;
20480;SDS011;10399;50.754;3.366;2024-02-16T15:12:45;8.63;;;5.97;;
20480;SDS011;10399;50.754;3.366;2024-02-16T15:15:12;4.93;;;3.95;;
20480;SDS011;10399;50.754;3.366;2024-02-16T15:17:40;7.93;;;4.15;;